createdAt,value
2023-04-11T00:00:59.679Z,18.47
2023-04-11T00:03:26.862Z,18.90
2023-04-11T00:05:53.068Z,19.40
2023-04-11T00:08:19.418Z,18.50
2023-04-11T00:10:45.900Z,19.20
2023-04-11T00:13:12.333Z,19.23
2023-04-11T00:15:38.623Z,19.73
2023-04-11T00:18:05.982Z,17.07
2023-04-11T00:20:32.018Z,15.70
2023-04-11T00:22:58.576Z,15.80
2023-04-11T00:25:24.831Z,15.70
2023-04-11T00:27:51.147Z,17.50
2023-04-11T00:30:17.283Z,16.63
2023-04-11T00:32:45.908Z,16.40
2023-04-11T00:35:12.081Z,17.27
2023-04-11T00:37:43.353Z,16.60
2023-04-11T00:40:11.567Z,17.17
2023-04-11T00:42:38.654Z,17.00
2023-04-11T00:45:05.657Z,16.43
2023-04-11T00:47:33.505Z,16.50
2023-04-11T00:49:59.953Z,16.97
2023-04-11T00:52:26.893Z,16.30
2023-04-11T00:54:53.083Z,16.83
2023-04-11T00:57:20.584Z,17.23
2023-04-11T00:59:47.644Z,18.43
2023-04-11T01:02:14.009Z,18.03
2023-04-11T01:04:40.117Z,17.17
2023-04-11T01:07:09.778Z,17.47
2023-04-11T01:09:36.150Z,17.73
2023-04-11T01:12:03.991Z,17.67
2023-04-11T01:14:30.375Z,17.00
2023-04-11T01:17:00.985Z,16.97
2023-04-11T01:19:27.751Z,13.13
2023-04-11T01:21:56.102Z,14.07
2023-04-11T01:24:22.973Z,14.30
2023-04-11T01:26:49.737Z,13.60
2023-04-11T01:29:16.188Z,15.23
2023-04-11T01:31:43.008Z,17.77
2023-04-11T01:34:12.611Z,16.00
2023-04-11T01:36:40.898Z,17.97
2023-04-11T01:39:07.367Z,19.43
2023-04-11T01:41:35.008Z,19.23
2023-04-11T01:44:04.984Z,17.57
2023-04-11T01:46:31.782Z,18.10
2023-04-11T01:49:00.477Z,19.23
2023-04-11T01:51:26.998Z,17.80
2023-04-11T01:53:53.073Z,19.53
2023-04-11T01:56:19.604Z,18.57
2023-04-11T01:58:46.090Z,19.17
2023-04-11T02:01:12.594Z,20.23
2023-04-11T02:03:39.126Z,18.87
2023-04-11T02:06:05.752Z,19.60
2023-04-11T02:08:31.828Z,19.63
2023-04-11T02:10:58.216Z,20.87
2023-04-11T02:13:24.311Z,20.27
2023-04-11T02:15:50.959Z,24.50
2023-04-11T02:18:17.491Z,24.23
2023-04-11T02:20:43.818Z,22.47
2023-04-11T02:23:10.316Z,21.37
2023-04-11T02:25:38.209Z,18.97
2023-04-11T02:28:06.779Z,20.57
2023-04-11T02:30:34.378Z,19.00
2023-04-11T02:33:00.930Z,19.00
2023-04-11T02:35:27.313Z,18.50
2023-04-11T02:37:53.412Z,18.53
2023-04-11T02:40:19.882Z,18.63
2023-04-11T02:42:46.023Z,19.97
2023-04-11T02:45:12.454Z,19.43
2023-04-11T02:47:39.004Z,20.57
2023-04-11T02:50:07.663Z,18.60
2023-04-11T02:52:41.470Z,19.87
2023-04-11T02:55:10.202Z,19.93
2023-04-11T02:57:36.460Z,19.17
2023-04-11T03:00:06.510Z,19.20
2023-04-11T03:02:42.626Z,19.50
2023-04-11T03:05:10.107Z,19.60
2023-04-11T03:07:39.784Z,18.43
2023-04-11T03:10:08.396Z,19.93
2023-04-11T03:12:34.641Z,19.03
2023-04-11T03:15:04.242Z,18.67
2023-04-11T03:17:30.385Z,18.73
2023-04-11T03:19:56.780Z,18.97
2023-04-11T03:22:23.786Z,18.90
2023-04-11T03:24:50.394Z,19.33
2023-04-11T03:27:19.598Z,17.97
2023-04-11T03:29:48.611Z,18.33
2023-04-11T03:32:24.278Z,18.03
2023-04-11T03:34:50.641Z,19.13
2023-04-11T03:37:16.816Z,18.80
2023-04-11T03:39:43.231Z,18.77
2023-04-11T03:42:09.288Z,18.23
2023-04-11T03:44:35.892Z,17.70
2023-04-11T03:47:02.439Z,19.37
2023-04-11T03:49:36.218Z,18.90
2023-04-11T03:52:04.861Z,18.43
2023-04-11T03:54:31.841Z,18.77
2023-04-11T03:56:58.668Z,19.43
2023-04-11T03:59:26.095Z,18.53
2023-04-11T04:01:58.395Z,19.43
2023-04-11T04:04:25.084Z,20.13
2023-04-11T04:07:03.522Z,19.70
2023-04-11T04:09:36.481Z,19.17
2023-04-11T04:12:03.682Z,18.10
2023-04-11T04:14:43.471Z,18.10
2023-04-11T04:17:10.511Z,19.70
2023-04-11T04:19:37.233Z,18.90
2023-04-11T04:22:03.380Z,18.47
2023-04-11T04:24:37.937Z,18.40
2023-04-11T04:27:17.292Z,18.17
2023-04-11T04:29:46.558Z,20.00
2023-04-11T04:32:21.992Z,18.63
2023-04-11T04:34:54.635Z,19.20
2023-04-11T04:37:32.327Z,18.53
2023-04-11T04:40:15.205Z,17.83
2023-04-11T04:42:57.365Z,18.47
2023-04-11T04:45:31.833Z,17.43
2023-04-11T04:47:59.387Z,17.57
2023-04-11T04:50:26.400Z,19.90
2023-04-11T04:52:53.162Z,18.10
2023-04-11T04:55:19.821Z,18.87
2023-04-11T04:57:46.824Z,18.50
2023-04-11T05:00:14.554Z,18.63
2023-04-11T05:02:44.147Z,17.90
2023-04-11T05:05:13.358Z,17.60
2023-04-11T05:07:40.191Z,17.77
2023-04-11T05:10:07.118Z,19.30
2023-04-11T05:12:36.180Z,18.87
2023-04-11T05:15:11.018Z,18.83
2023-04-11T05:17:38.730Z,19.07
2023-04-11T05:20:08.317Z,19.20
2023-04-11T05:22:37.337Z,18.77
2023-04-11T05:25:05.046Z,17.40
2023-04-11T05:27:31.565Z,17.70
2023-04-11T05:29:58.773Z,17.07
2023-04-11T05:32:24.966Z,17.67
2023-04-11T05:34:58.801Z,17.67
2023-04-11T05:37:46.358Z,18.50
2023-04-11T05:40:13.053Z,17.67
2023-04-11T05:42:39.329Z,18.50
2023-04-11T05:45:06.477Z,18.03
2023-04-11T05:47:33.112Z,18.43
2023-04-11T05:49:59.718Z,18.40
2023-04-11T05:52:25.758Z,17.77
2023-04-11T05:54:52.161Z,18.57
2023-04-11T05:57:18.303Z,17.70
2023-04-11T05:59:48.921Z,19.23
2023-04-11T06:02:15.992Z,19.17
2023-04-11T06:04:42.975Z,18.90
2023-04-11T06:07:09.463Z,18.23
2023-04-11T06:09:35.938Z,18.90
2023-04-11T06:12:02.821Z,18.63
2023-04-11T06:14:29.184Z,18.23
2023-04-11T06:16:55.601Z,18.23
2023-04-11T06:19:21.977Z,17.17
2023-04-11T06:21:48.394Z,17.57
2023-04-11T06:24:17.735Z,17.70
2023-04-11T06:26:44.167Z,17.17
2023-04-11T06:29:10.704Z,16.47
2023-04-11T06:31:37.432Z,16.57
2023-04-11T06:34:04.457Z,16.37
2023-04-11T06:36:30.817Z,17.40
2023-04-11T06:38:57.256Z,16.27
2023-04-11T06:41:23.614Z,16.30
2023-04-11T06:43:49.989Z,16.60
2023-04-11T06:46:16.212Z,15.40
2023-04-11T06:48:43.094Z,16.23
2023-04-11T06:51:09.988Z,15.63
2023-04-11T06:53:37.173Z,16.20
2023-04-11T06:56:03.844Z,16.17
2023-04-11T06:58:30.388Z,16.13
2023-04-11T07:00:56.505Z,15.87
2023-04-11T07:03:24.541Z,14.87
2023-04-11T07:05:51.165Z,15.07
2023-04-11T07:08:17.719Z,15.13
2023-04-11T07:10:44.056Z,14.63
2023-04-11T07:13:10.672Z,15.10
2023-04-11T07:15:36.969Z,14.60
2023-04-11T07:18:03.545Z,15.07
2023-04-11T07:20:32.144Z,13.70
2023-04-11T07:22:58.609Z,14.40
2023-04-11T07:25:32.705Z,14.57
2023-04-11T07:27:59.940Z,15.07
2023-04-11T07:30:28.839Z,14.03
2023-04-11T07:32:55.606Z,14.27
2023-04-11T07:35:21.872Z,15.47
2023-04-11T07:37:48.238Z,13.93
2023-04-11T07:40:14.765Z,14.10
2023-04-11T07:42:41.527Z,14.80
2023-04-11T07:45:07.906Z,16.73
2023-04-11T07:47:34.967Z,14.80
2023-04-11T07:50:01.384Z,14.13
2023-04-11T07:52:27.996Z,15.17
2023-04-11T07:54:54.101Z,15.10
2023-04-11T07:57:20.773Z,16.00
2023-04-11T07:59:46.902Z,16.27
2023-04-11T08:02:13.493Z,17.97
2023-04-11T08:04:40.088Z,16.23
2023-04-11T08:07:06.619Z,14.67
2023-04-11T08:09:33.623Z,14.63
2023-04-11T08:12:00.920Z,14.90
2023-04-11T08:14:27.481Z,14.00
2023-04-11T08:16:53.934Z,13.53
2023-04-11T08:19:20.489Z,14.73
2023-04-11T08:21:46.918Z,14.50
2023-04-11T08:24:12.992Z,15.43
2023-04-11T08:26:39.405Z,14.77
2023-04-11T08:29:10.240Z,13.50
2023-04-11T08:31:36.971Z,13.40
2023-04-11T08:34:06.212Z,14.77
2023-04-11T08:36:33.730Z,15.00
2023-04-11T08:39:00.229Z,14.40
2023-04-11T08:41:30.068Z,14.90
2023-04-11T08:43:57.445Z,14.00
2023-04-11T08:46:24.364Z,13.87
2023-04-11T08:48:50.655Z,14.50
2023-04-11T08:51:21.806Z,15.37
2023-04-11T08:53:51.454Z,15.30
2023-04-11T08:56:17.853Z,14.47
2023-04-11T08:58:44.077Z,16.07
2023-04-11T09:01:31.349Z,15.23
2023-04-11T09:03:59.216Z,15.37
2023-04-11T09:06:29.964Z,16.90
2023-04-11T09:09:00.613Z,15.13
2023-04-11T09:11:27.195Z,16.60
2023-04-11T09:14:06.353Z,14.07
2023-04-11T09:16:33.392Z,14.33
2023-04-11T09:18:59.677Z,15.07
2023-04-11T09:21:28.639Z,24.53
2023-04-11T09:24:13.768Z,17.13
2023-04-11T09:26:40.218Z,15.90
2023-04-11T09:29:06.390Z,15.20
2023-04-11T09:31:44.065Z,14.87
2023-04-11T09:34:22.876Z,13.67
2023-04-11T09:36:54.224Z,13.63
2023-04-11T09:39:20.719Z,14.37
2023-04-11T09:41:47.365Z,14.83
2023-04-11T09:44:13.662Z,15.13
2023-04-11T09:46:58.945Z,13.87
2023-04-11T09:49:25.457Z,14.57
2023-04-11T09:51:52.340Z,13.13
2023-04-11T09:54:24.026Z,14.60
2023-04-11T09:56:50.516Z,13.10
2023-04-11T09:59:17.046Z,14.10
2023-04-11T10:01:43.538Z,12.93
2023-04-11T10:04:13.053Z,13.90
2023-04-11T10:06:58.946Z,13.90
2023-04-11T10:09:26.734Z,12.57
2023-04-11T10:11:53.247Z,11.67
2023-04-11T10:14:37.798Z,12.00
2023-04-11T10:17:31.086Z,12.70
2023-04-11T10:19:57.387Z,12.17
2023-04-11T10:22:42.462Z,12.13
2023-04-11T10:25:19.619Z,12.60
2023-04-11T10:27:49.840Z,14.20
2023-04-11T10:30:16.132Z,12.53
2023-04-11T10:33:08.961Z,12.03
2023-04-11T10:35:35.712Z,13.13
2023-04-11T10:38:02.120Z,12.90
2023-04-11T10:40:28.377Z,13.07
2023-04-11T10:42:56.662Z,11.57
2023-04-11T10:45:29.598Z,10.97
2023-04-11T10:47:56.173Z,11.73
2023-04-11T10:50:28.100Z,10.73
2023-04-11T10:53:04.162Z,11.43
2023-04-11T10:55:41.596Z,10.23
2023-04-11T10:58:21.457Z,9.47
2023-04-11T11:00:56.726Z,9.17
2023-04-11T11:03:23.526Z,8.83
2023-04-11T11:06:02.944Z,7.13
2023-04-11T11:08:34.812Z,6.50
2023-04-11T11:11:03.225Z,6.80
2023-04-11T11:13:42.850Z,6.27
2023-04-11T11:16:13.718Z,6.70
2023-04-11T11:18:41.250Z,5.93
2023-04-11T11:21:11.235Z,6.77
2023-04-11T11:23:55.976Z,6.30
2023-04-11T11:26:33.747Z,6.47
2023-04-11T11:29:01.402Z,6.90
2023-04-11T11:31:47.162Z,6.80
2023-04-11T11:34:26.757Z,7.73
2023-04-11T11:36:53.426Z,7.60
2023-04-11T11:39:22.028Z,7.07
2023-04-11T11:41:50.433Z,7.43
2023-04-11T11:44:27.684Z,7.70
2023-04-11T11:47:08.486Z,6.83
2023-04-11T11:49:52.104Z,7.33
2023-04-11T11:52:41.253Z,7.33
2023-04-11T11:55:27.731Z,7.17
2023-04-11T11:57:58.080Z,7.60
2023-04-11T12:00:26.437Z,7.27
2023-04-11T12:02:54.340Z,7.33
2023-04-11T12:05:23.915Z,7.00
2023-04-11T12:07:54.321Z,7.87
2023-04-11T12:10:20.928Z,7.07
2023-04-11T12:12:53.105Z,7.40
2023-04-11T12:15:23.478Z,7.33
2023-04-11T12:17:51.272Z,7.10
2023-04-11T12:20:27.352Z,7.50
2023-04-11T12:22:55.131Z,8.47
2023-04-11T12:25:22.705Z,7.80
2023-04-11T12:27:48.873Z,8.10
2023-04-11T12:30:15.431Z,8.07
2023-04-11T12:32:42.705Z,8.27
2023-04-11T12:35:10.858Z,8.53
2023-04-11T12:37:37.904Z,7.97
2023-04-11T12:40:11.766Z,8.13
2023-04-11T12:42:56.308Z,8.50
2023-04-11T12:45:24.419Z,7.17
2023-04-11T12:47:51.093Z,7.60
2023-04-11T12:50:17.578Z,7.07
2023-04-11T12:52:43.770Z,7.50
2023-04-11T12:55:10.337Z,8.00
2023-04-11T12:57:36.660Z,7.50
2023-04-11T13:00:07.242Z,6.90
2023-04-11T13:02:42.300Z,6.10
2023-04-11T13:05:14.837Z,4.53
2023-04-11T13:07:42.004Z,5.47
2023-04-11T13:10:08.858Z,4.40
2023-04-11T13:12:40.390Z,4.73
2023-04-11T13:15:08.688Z,4.80
2023-04-11T13:17:34.899Z,3.63
2023-04-11T13:20:01.693Z,5.20
2023-04-11T13:22:27.911Z,5.90
2023-04-11T13:24:54.445Z,7.57
2023-04-11T13:27:21.349Z,3.77
2023-04-11T13:29:47.784Z,3.90
2023-04-11T13:32:13.918Z,2.93
2023-04-11T13:34:40.468Z,2.50
2023-04-11T13:37:06.624Z,2.33
2023-04-11T13:39:33.317Z,2.50
2023-04-11T13:41:59.820Z,1.90
2023-04-11T13:44:26.657Z,1.90
2023-04-11T13:46:52.873Z,2.30
2023-04-11T13:49:19.490Z,2.20
2023-04-11T13:51:45.950Z,2.17
2023-04-11T13:54:12.422Z,2.30
2023-04-11T13:56:38.711Z,3.23
2023-04-11T13:59:05.571Z,2.30
2023-04-11T14:01:32.033Z,2.70
2023-04-11T14:03:59.793Z,3.30
2023-04-11T14:06:26.853Z,2.70
2023-04-11T14:08:53.511Z,3.00
2023-04-11T14:11:20.409Z,2.80
2023-04-11T14:13:48.257Z,2.90
2023-04-11T14:16:14.645Z,3.10
2023-04-11T14:18:41.788Z,3.00
2023-04-11T14:21:08.215Z,4.10
2023-04-11T14:23:36.234Z,3.77
2023-04-11T14:26:02.787Z,3.80
2023-04-11T14:28:29.546Z,4.40
2023-04-11T14:30:56.425Z,3.80
2023-04-11T14:33:23.032Z,4.47
2023-04-11T14:35:50.445Z,4.17
2023-04-11T14:38:17.185Z,4.70
2023-04-11T14:40:43.854Z,4.47
2023-04-11T14:43:10.838Z,4.73
2023-04-11T14:45:37.253Z,5.60
2023-04-11T14:48:04.115Z,4.90
2023-04-11T14:50:30.598Z,4.53
2023-04-11T14:53:00.037Z,4.57
2023-04-11T14:55:26.297Z,5.37
2023-04-11T14:57:54.561Z,5.10
2023-04-11T15:00:21.790Z,4.93
2023-04-11T15:02:51.579Z,5.23
2023-04-11T15:05:20.362Z,5.37
2023-04-11T15:07:48.474Z,5.20
2023-04-11T15:10:17.167Z,5.93
2023-04-11T15:12:43.993Z,4.87
2023-04-11T15:15:11.106Z,5.07
2023-04-11T15:17:48.740Z,5.10
2023-04-11T15:20:15.768Z,6.37
2023-04-11T15:22:44.560Z,5.83
2023-04-11T15:25:14.179Z,6.63
2023-04-11T15:27:41.770Z,5.80
2023-04-11T15:30:09.488Z,11.07
2023-04-11T15:32:41.300Z,6.03
2023-04-11T15:35:08.361Z,4.00
2023-04-11T15:37:34.886Z,4.20
2023-04-11T15:40:05.182Z,4.70
2023-04-11T15:42:34.472Z,10.07
2023-04-11T15:45:00.897Z,8.30
2023-04-11T15:47:27.785Z,4.37
2023-04-11T15:49:54.145Z,4.17
2023-04-11T15:52:20.814Z,5.57
2023-04-11T15:54:47.160Z,9.13
2023-04-11T15:57:13.652Z,7.83
2023-04-11T15:59:40.499Z,5.87
2023-04-11T16:02:06.937Z,4.20
2023-04-11T16:04:37.538Z,4.00
2023-04-11T16:07:05.937Z,3.83
2023-04-11T16:09:32.478Z,2.77
2023-04-11T16:11:59.187Z,3.77
2023-04-11T16:14:25.544Z,4.63
2023-04-11T16:16:52.231Z,4.87
2023-04-11T16:19:18.328Z,3.67
2023-04-11T16:21:44.827Z,6.03
2023-04-11T16:24:14.221Z,5.60
2023-04-11T16:26:40.670Z,3.73
2023-04-11T16:29:07.036Z,6.23
2023-04-11T16:31:34.360Z,5.50
2023-04-11T16:34:00.603Z,4.07
2023-04-11T16:36:27.816Z,2.40
2023-04-11T16:38:54.443Z,2.50
2023-04-11T16:41:21.328Z,3.30
2023-04-11T16:43:47.464Z,2.60
2023-04-11T16:46:14.560Z,2.50
2023-04-11T16:48:41.942Z,2.50
2023-04-11T16:51:10.621Z,3.07
2023-04-11T16:53:37.718Z,2.80
2023-04-11T16:56:04.627Z,3.00
2023-04-11T16:58:31.450Z,3.00
2023-04-11T17:00:59.065Z,3.30
2023-04-11T17:03:25.855Z,3.33
2023-04-11T17:05:52.568Z,3.67
2023-04-11T17:08:20.079Z,3.93
2023-04-11T17:10:46.796Z,3.87
2023-04-11T17:13:13.973Z,3.80
2023-04-11T17:15:40.805Z,3.90
2023-04-11T17:18:07.213Z,7.23
2023-04-11T17:20:33.812Z,4.20
2023-04-11T17:23:00.173Z,5.33
2023-04-11T17:25:29.731Z,4.60
2023-04-11T17:27:56.924Z,4.27
2023-04-11T17:30:23.222Z,5.37
2023-04-11T17:32:50.101Z,3.73
2023-04-11T17:35:16.652Z,4.33
2023-04-11T17:37:43.216Z,3.87
2023-04-11T17:40:13.873Z,3.37
2023-04-11T17:42:41.210Z,3.47
2023-04-11T17:45:17.830Z,3.00
2023-04-11T17:47:46.828Z,2.97
2023-04-11T17:50:14.032Z,3.43
2023-04-11T17:52:43.179Z,2.90
2023-04-11T17:55:12.479Z,3.40
2023-04-11T17:57:39.813Z,3.13
2023-04-11T18:00:16.949Z,2.87
2023-04-11T18:02:46.997Z,3.20
2023-04-11T18:05:23.154Z,3.00
2023-04-11T18:07:54.150Z,2.90
2023-04-11T18:10:21.205Z,3.60
2023-04-11T18:12:50.772Z,3.00
2023-04-11T18:15:17.834Z,3.50
2023-04-11T18:17:44.969Z,3.30
2023-04-11T18:20:12.812Z,3.23
2023-04-11T18:22:43.992Z,2.93
2023-04-11T18:25:11.147Z,2.87
2023-04-11T18:27:39.011Z,2.63
2023-04-11T18:30:16.165Z,2.50
2023-04-11T18:32:49.565Z,1.73
2023-04-11T18:35:17.550Z,3.10
2023-04-11T18:37:44.913Z,1.90
2023-04-11T18:40:13.392Z,1.70
2023-04-11T18:42:46.674Z,1.73
2023-04-11T18:45:17.177Z,1.77
2023-04-11T18:47:47.171Z,1.40
2023-04-11T18:50:15.128Z,1.80
2023-04-11T18:52:42.829Z,1.83
2023-04-11T18:55:10.120Z,1.90
2023-04-11T18:57:38.389Z,2.33
2023-04-11T19:00:18.450Z,2.77
2023-04-11T19:02:47.481Z,2.60
2023-04-11T19:05:15.721Z,3.10
2023-04-11T19:07:43.092Z,3.40
2023-04-11T19:10:12.293Z,2.97
2023-04-11T19:12:40.420Z,3.10
2023-04-11T19:15:08.374Z,2.83
2023-04-11T19:17:37.374Z,2.70
2023-04-11T19:20:07.036Z,2.60
2023-04-11T19:22:35.219Z,3.50
2023-04-11T19:25:01.660Z,4.50
2023-04-11T19:27:28.890Z,8.57
2023-04-11T19:29:56.304Z,9.90
2023-04-11T19:32:23.207Z,6.90
2023-04-11T19:34:50.147Z,4.63
2023-04-11T19:37:18.632Z,3.13
2023-04-11T19:39:45.215Z,3.17
2023-04-11T19:42:12.980Z,2.70
2023-04-11T19:44:39.522Z,5.27
2023-04-11T19:47:06.076Z,3.50
2023-04-11T19:49:32.623Z,3.40
2023-04-11T19:51:59.761Z,2.63
2023-04-11T19:54:26.587Z,2.70
2023-04-11T19:56:53.491Z,2.53
2023-04-11T19:59:20.290Z,2.20
2023-04-11T20:01:47.175Z,2.20
2023-04-11T20:04:15.173Z,2.40
2023-04-11T20:06:43.481Z,2.13
2023-04-11T20:09:10.934Z,1.97
2023-04-11T20:11:38.437Z,2.00
2023-04-11T20:14:05.877Z,2.17
2023-04-11T20:16:32.340Z,2.37
2023-04-11T20:19:00.822Z,2.57
2023-04-11T20:21:27.531Z,3.07
2023-04-11T20:23:54.216Z,3.37
2023-04-11T20:26:21.141Z,3.30
2023-04-11T20:28:48.985Z,3.97
2023-04-11T20:31:15.791Z,3.60
2023-04-11T20:33:43.607Z,3.60
2023-04-11T20:36:10.693Z,3.53
2023-04-11T20:38:37.545Z,4.03
2023-04-11T20:41:05.036Z,4.37
2023-04-11T20:43:35.871Z,3.73
2023-04-11T20:46:07.842Z,4.43
2023-04-11T20:48:34.745Z,3.47
2023-04-11T20:51:01.422Z,2.97
2023-04-11T20:53:28.086Z,3.57
2023-04-11T20:55:54.798Z,3.37
2023-04-11T20:58:21.379Z,4.10
2023-04-11T21:00:47.933Z,3.47
2023-04-11T21:03:14.951Z,4.00
2023-04-11T21:05:46.122Z,4.00
2023-04-11T21:08:13.633Z,4.93
2023-04-11T21:10:40.104Z,3.93
2023-04-11T21:13:06.392Z,3.33
2023-04-11T21:15:34.084Z,3.67
2023-04-11T21:18:00.390Z,3.30
2023-04-11T21:20:26.772Z,3.20
2023-04-11T21:22:53.110Z,3.13
2023-04-11T21:25:20.423Z,2.97
2023-04-11T21:27:47.544Z,2.87
2023-04-11T21:30:14.265Z,3.23
2023-04-11T21:32:40.971Z,3.17
2023-04-11T21:35:10.131Z,2.60
2023-04-11T21:37:36.416Z,2.80
2023-04-11T21:40:03.701Z,3.33
2023-04-11T21:42:30.547Z,3.93
2023-04-11T21:44:57.784Z,3.40
2023-04-11T21:47:24.061Z,2.73
2023-04-11T21:49:51.021Z,3.30
2023-04-11T21:52:19.950Z,2.60
2023-04-11T21:54:46.355Z,2.80
2023-04-11T21:57:12.724Z,3.13
2023-04-11T21:59:39.196Z,2.83
2023-04-11T22:02:05.989Z,3.40
2023-04-11T22:04:44.031Z,2.80
2023-04-11T22:07:23.282Z,2.60
2023-04-11T22:09:57.516Z,3.37
2023-04-11T22:12:26.037Z,3.13
2023-04-11T22:14:52.747Z,3.23
2023-04-11T22:17:23.030Z,3.00
2023-04-11T22:19:49.737Z,3.10
2023-04-11T22:22:17.039Z,3.17
2023-04-11T22:24:45.688Z,2.70
2023-04-11T22:27:12.897Z,3.10
2023-04-11T22:29:40.500Z,2.80
2023-04-11T22:32:07.507Z,2.93
2023-04-11T22:34:34.002Z,2.77
2023-04-11T22:37:00.666Z,3.10
2023-04-11T22:39:27.127Z,2.43
2023-04-11T22:41:53.784Z,2.53
2023-04-11T22:44:21.173Z,3.27
2023-04-11T22:46:59.554Z,2.97
2023-04-11T22:49:26.508Z,2.50
2023-04-11T22:51:52.658Z,3.43
2023-04-11T22:54:19.461Z,3.20
2023-04-11T22:56:47.798Z,3.50
2023-04-11T22:59:14.099Z,3.10
2023-04-11T23:01:40.694Z,3.47
2023-04-11T23:04:07.621Z,3.23
2023-04-11T23:06:34.125Z,2.93
2023-04-11T23:09:00.664Z,2.70
2023-04-11T23:11:26.706Z,2.90
2023-04-11T23:13:53.781Z,3.20
2023-04-11T23:16:21.330Z,3.00
2023-04-11T23:18:47.734Z,2.60
2023-04-11T23:21:13.847Z,2.70
2023-04-11T23:23:40.243Z,2.70
2023-04-11T23:26:06.555Z,2.90
2023-04-11T23:28:33.020Z,2.87
2023-04-11T23:34:52.821Z,2.77
2023-04-11T23:37:19.224Z,3.10
2023-04-11T23:39:45.655Z,2.93
2023-04-11T23:42:11.959Z,2.50
2023-04-11T23:44:38.439Z,2.77
2023-04-11T23:47:04.642Z,3.07
2023-04-11T23:49:33.165Z,2.77
2023-04-11T23:51:59.300Z,2.97
2023-04-11T23:54:30.149Z,2.77
2023-04-11T23:56:57.444Z,3.20
2023-04-11T23:59:24.304Z,3.50
